• Join FlightAware (Why Join?)
  • Login
  • US Flag 
04:34PM EDT


 

Airport Tracker/Info


-or-


 

Live Flight TrackerFlight Track Log ✈ AMF1970 ✈ 08-Nov-2013 ✈ KBFI - KEAT

Flight Track Log - Related Links

Times and Time Zones

All times are in EST time to prevent confusion due to time zone crossing. See the AMF1970 flight status page for this flight to view local times or setup timezone preferences in your user account.

Time Position Orientation Groundspeed Altitude Reporting Facility
EST Latitude Longitude Course Direction KTS MPH feet Rate Location/Type
10:02AM 47.5225 -122.2950 138° Southeast 116 133 900  Level Seattle Center
10:03AM 47.4892 -122.2511 138° Southeast 124 143 2,700 1,260 Climbing Seattle Center
10:03AM 47.4861 -122.2444 124° Southeast 121 139 2,900 1,320 Climbing Seattle Center
10:04AM 47.4753 -122.1964 108° East 154 177 4,100 1,500 Climbing Seattle Center
10:04AM 47.4744 -122.1822 95° East 150 173 4,400 1,200 Climbing Seattle Center
10:05AM 47.4703 -122.1336 97° East 161 185 5,300 1,140 Climbing Seattle Center
10:05AM 47.4683 -122.1181 100° East 157 181 5,600 960 Climbing Seattle Center
10:06AM 47.4606 -122.0700 103° East 168 193 6,200 480 Climbing Seattle Center
10:06AM 47.4603 -122.0469 91° East 174 200 6,100 60 Descending Seattle Center
10:07AM 47.4544 -121.9850 98° East 222 255 6,300 900 Climbing Seattle Center
10:07AM 47.4519 -121.9608 99° East 209 241 7,000 1,260 Climbing Seattle Center
10:08AM 47.4478 -121.9067 96° East 194 223 7,600 840 Climbing Seattle Center
10:08AM 47.4444 -121.8825 102° East 195 224 7,900 960 Climbing Seattle Center
10:09AM 47.4369 -121.8306 102° East 186 214 8,600 960 Climbing Seattle Center
10:09AM 47.4369 -121.8064 90° East 190 219 8,900 360 Climbing Seattle Center
10:10AM 47.4272 -121.7211 100° East 211 243 9,100 540 Climbing Seattle Center
10:11AM 47.4106 -121.6419 107° East 203 234 10,100 900 Climbing Seattle Center
10:12AM 47.4028 -121.5506 97° East 208 239 11,000 600 Climbing Seattle Center
10:13AM 47.4033 -121.4631 89° East 212 244 11,400 240 Climbing Seattle Center
10:14AM 47.4033 -121.3789 90° East 206 237 11,600 60 Climbing Seattle Center
10:15AM 47.3992 -121.2864 94° East 224 258 11,600  Level Seattle Center
10:16AM 47.3922 -121.2069 97° East 222 255 11,700  Climbing Seattle Center
10:17AM 47.3861 -121.1144 96° East 226 260 11,700 -120 Level Seattle Center
10:18AM 47.3789 -121.0031 95° East 230 265 11,500  Descending Seattle Center
10:19AM 47.3719 -120.9142 97° East 221 254 11,700  Climbing Seattle Center
10:20AM 47.3658 -120.8264 96° East 229 264 11,500 -240 Descending Seattle Center